Time;durP1;ratioP1;P1;durP2;ratioP2;P2;SDS_P1;SDS_P2;PMS_P1;PMS_P2;Temp;Humidity;BMP_temperature;BMP_pressure;BME280_temperature;BME280_humidity;BME280_pressure;Samples;Min_cycle;Max_cycle;Signal;HPM_P1;HPM_P2
2023/01/20 00:01:11;;;;;;;61.15;52.20;;;14.20;59.00;;;;;;5038989;27;86846;-57
2023/01/20 00:03:41;;;;;;;60.42;52.17;;;14.10;59.00;;;;;;5043757;27;85574;-57
2023/01/20 00:06:08;;;;;;;61.35;52.05;;;14.10;59.00;;;;;;5045985;27;87165;-58
2023/01/20 00:08:34;;;;;;;61.90;52.35;;;14.10;59.20;;;;;;5038622;27;86916;-58
2023/01/20 00:11:04;;;;;;;60.72;51.22;;;14.00;59.00;;;;;;5040388;27;85915;-57
2023/01/20 00:13:30;;;;;;;61.10;52.45;;;14.00;59.10;;;;;;5041958;27;85378;-56
2023/01/20 00:15:55;;;;;;;59.42;51.38;;;14.00;59.10;;;;;;5030912;27;85260;-57
2023/01/20 00:18:21;;;;;;;61.00;51.33;;;14.00;59.90;;;;;;5043126;27;85444;-57
2023/01/20 00:20:47;;;;;;;63.90;52.72;;;14.00;59.20;;;;;;5040133;27;85414;-57
2023/01/20 00:23:13;;;;;;;59.33;51.38;;;13.90;59.70;;;;;;5045732;27;87820;-58
2023/01/20 00:25:38;;;;;;;59.50;51.05;;;13.90;59.20;;;;;;5032321;27;89716;-55
2023/01/20 00:28:04;;;;;;;61.45;51.75;;;13.90;59.20;;;;;;5028078;27;88993;-57
2023/01/20 00:30:30;;;;;;;59.95;51.03;;;13.90;59.30;;;;;;5045991;27;86883;-57
2023/01/20 00:32:56;;;;;;;61.00;51.88;;;13.90;59.30;;;;;;5034805;27;85377;-58
2023/01/20 00:35:21;;;;;;;59.53;51.40;;;13.90;59.40;;;;;;5041647;27;85471;-57
2023/01/20 00:37:47;;;;;;;59.95;51.22;;;13.90;59.20;;;;;;5026661;27;87521;-51
2023/01/20 00:40:12;;;;;;;60.78;51.30;;;13.80;59.20;;;;;;5042799;27;85154;-55
2023/01/20 00:42:38;;;;;;;59.92;51.00;;;13.90;59.30;;;;;;5054387;27;85338;-58
2023/01/20 00:45:04;;;;;;;59.53;51.40;;;13.80;59.20;;;;;;5038698;27;86949;-58
2023/01/20 00:47:30;;;;;;;60.03;50.95;;;13.80;59.20;;;;;;5040754;27;84829;-51
2023/01/20 00:49:56;;;;;;;59.45;50.53;;;13.80;59.30;;;;;;5029251;27;90184;-57
2023/01/20 00:52:21;;;;;;;59.75;50.45;;;13.80;59.20;;;;;;5043311;27;86885;-58
2023/01/20 00:54:47;;;;;;;60.58;51.25;;;13.80;59.30;;;;;;5037983;27;89446;-56
2023/01/20 00:57:13;;;;;;;59.58;50.78;;;13.80;59.20;;;;;;5041204;27;87099;-57
2023/01/20 00:59:38;;;;;;;57.72;50.42;;;13.80;59.10;;;;;;5028039;27;84884;-58
2023/01/20 01:02:04;;;;;;;57.53;50.05;;;13.70;59.20;;;;;;5029520;27;87265;-58
2023/01/20 01:04:30;;;;;;;58.42;51.05;;;13.80;59.20;;;;;;5042178;27;85475;-58
2023/01/20 01:06:56;;;;;;;57.22;50.40;;;13.80;59.20;;;;;;5043093;27;85362;-57
2023/01/20 01:09:21;;;;;;;60.17;50.80;;;13.80;59.30;;;;;;5038238;27;88756;-58
2023/01/20 01:11:48;;;;;;;58.65;50.67;;;13.80;59.20;;;;;;5039581;27;87749;-57
2023/01/20 01:14:14;;;;;;;59.38;50.83;;;13.80;59.40;;;;;;5055470;27;92356;-57
2023/01/20 01:16:39;;;;;;;56.83;50.03;;;13.70;59.20;;;;;;5039729;27;85567;-58
2023/01/20 01:19:05;;;;;;;58.55;50.95;;;13.80;59.10;;;;;;5044841;27;85845;-56
2023/01/20 01:21:31;;;;;;;58.42;50.47;;;13.70;59.10;;;;;;5050632;27;84775;-58
2023/01/20 01:23:56;;;;;;;59.38;51.20;;;13.70;59.30;;;;;;5050330;27;87181;-56
2023/01/20 01:26:22;;;;;;;58.83;50.97;;;13.70;59.20;;;;;;5048884;27;84814;-58
2023/01/20 01:28:49;;;;;;;58.28;51.17;;;13.70;59.30;;;;;;5049003;27;85311;-58
2023/01/20 01:31:17;;;;;;;57.90;50.30;;;13.70;59.20;;;;;;5044023;27;86412;-58
2023/01/20 01:33:43;;;;;;;57.85;50.35;;;13.60;59.40;;;;;;5048430;27;86439;-59
2023/01/20 01:36:12;;;;;;;61.40;51.08;;;13.60;59.40;;;;;;5039608;27;86054;-58
2023/01/20 01:38:38;;;;;;;57.80;50.50;;;13.60;59.30;;;;;;5033723;27;86796;-58
2023/01/20 01:41:04;;;;;;;57.45;50.25;;;13.50;59.40;;;;;;5044936;27;85752;-58
2023/01/20 01:43:34;;;;;;;57.53;50.22;;;13.60;59.40;;;;;;5023779;27;88809;-58
2023/01/20 01:46:00;;;;;;;57.92;50.45;;;13.50;59.40;;;;;;5017407;27;84684;-58
2023/01/20 01:48:35;;;;;;;57.92;50.17;;;13.50;59.30;;;;;;5037331;27;87074;-58
2023/01/20 01:51:04;;;;;;;58.50;50.58;;;13.50;59.40;;;;;;5045272;27;85067;-52
2023/01/20 01:53:36;;;;;;;59.05;51.42;;;13.50;59.30;;;;;;5040526;27;86788;-59
2023/01/20 01:56:02;;;;;;;58.55;50.55;;;13.50;59.50;;;;;;5040443;27;85480;-56
2023/01/20 01:58:40;;;;;;;59.00;50.83;;;13.50;59.50;;;;;;5044290;27;84427;-54
2023/01/20 02:01:06;;;;;;;58.42;50.90;;;13.40;59.40;;;;;;5047881;27;85299;-56
2023/01/20 02:03:52;;;;;;;58.85;50.80;;;13.40;59.40;;;;;;5046568;27;88397;-58
2023/01/20 02:06:20;;;;;;;57.70;50.35;;;13.50;59.50;;;;;;5033007;27;86166;-58
2023/01/20 02:08:45;;;;;;;57.55;50.25;;;13.50;59.40;;;;;;5031692;27;89065;-58
2023/01/20 02:11:14;;;;;;;60.05;50.85;;;13.40;59.40;;;;;;5045896;27;85255;-52
2023/01/20 02:13:40;;;;;;;60.15;50.33;;;13.40;59.50;;;;;;5037128;27;88142;-58
2023/01/20 02:16:35;;;;;;;58.78;50.00;;;13.40;59.50;;;;;;5041402;27;85409;-53
2023/01/20 02:19:19;;;;;;;59.35;50.97;;;13.30;59.40;;;;;;5038073;27;85834;-52
2023/01/20 02:22:09;;;;;;;57.22;50.10;;;13.30;59.70;;;;;;5042161;27;85260;-59
2023/01/20 02:24:35;;;;;;;57.70;50.10;;;13.30;59.60;;;;;;5048304;27;85953;-57
2023/01/20 02:27:29;;;;;;;58.90;50.17;;;13.40;59.50;;;;;;5044166;27;89235;-50
2023/01/20 02:30:37;;;;;;;59.60;50.58;;;13.40;59.50;;;;;;5047765;27;87739;-51
2023/01/20 02:33:16;;;;;;;55.75;49.63;;;13.30;59.40;;;;;;4993981;27;85113;-58
2023/01/20 02:35:52;;;;;;;58.40;50.20;;;13.30;59.40;;;;;;5040926;27;86186;-58
2023/01/20 02:38:50;;;;;;;57.80;50.03;;;13.30;59.40;;;;;;5042156;27;86510;-57
2023/01/20 02:41:36;;;;;;;58.42;50.22;;;13.20;59.40;;;;;;5033808;27;86260;-58
2023/01/20 02:44:33;;;;;;;57.55;50.35;;;13.30;59.60;;;;;;5030659;27;87046;-58
2023/01/20 02:47:06;;;;;;;57.17;50.10;;;13.20;59.50;;;;;;5033389;27;86991;-55
2023/01/20 02:49:41;;;;;;;56.78;50.00;;;13.20;59.70;;;;;;5049554;27;85279;-57
2023/01/20 02:52:14;;;;;;;56.85;49.60;;;13.20;59.70;;;;;;5053104;27;85514;-57
2023/01/20 02:54:45;;;;;;;56.45;49.78;;;13.10;59.50;;;;;;5051631;27;84880;-59
2023/01/20 02:57:16;;;;;;;55.28;49.25;;;13.10;59.60;;;;;;5038061;27;87614;-56
2023/01/20 02:59:46;;;;;;;59.17;50.55;;;13.20;59.80;;;;;;5039911;27;86080;-59
2023/01/20 03:02:19;;;;;;;55.97;49.50;;;13.10;59.80;;;;;;5048500;27;86354;-50
2023/01/20 03:04:51;;;;;;;56.50;49.15;;;13.10;59.70;;;;;;5036537;27;89144;-58
2023/01/20 03:07:20;;;;;;;55.67;49.58;;;13.10;59.70;;;;;;5049207;27;85491;-57
2023/01/20 03:09:49;;;;;;;57.15;49.78;;;13.10;59.70;;;;;;5044155;27;87504;-58
2023/01/20 03:12:28;;;;;;;55.97;49.15;;;13.10;59.80;;;;;;5038992;27;84883;-57
2023/01/20 03:14:53;;;;;;;55.67;49.53;;;13.10;59.60;;;;;;5058565;27;85656;-57
2023/01/20 03:17:20;;;;;;;56.35;49.38;;;13.10;59.70;;;;;;5042735;27;84818;-58
2023/01/20 03:19:46;;;;;;;57.42;49.88;;;13.10;59.80;;;;;;5050485;27;85253;-58
2023/01/20 03:22:12;;;;;;;57.25;50.17;;;13.10;59.60;;;;;;5033308;27;85575;-56
2023/01/20 03:24:40;;;;;;;56.03;49.50;;;13.10;60.00;;;;;;5052724;27;85776;-58
2023/01/20 03:27:06;;;;;;;56.28;49.65;;;13.10;59.60;;;;;;5040032;27;85333;-58
2023/01/20 03:29:32;;;;;;;56.60;49.80;;;13.00;59.70;;;;;;5050320;27;87130;-57
2023/01/20 03:31:59;;;;;;;55.45;49.30;;;13.00;59.70;;;;;;5051240;27;85488;-57
2023/01/20 03:34:29;;;;;;;56.08;49.55;;;13.10;59.80;;;;;;5049679;27;85139;-57
2023/01/20 03:36:56;;;;;;;56.03;49.88;;;13.00;59.70;;;;;;5041993;27;90495;-57
2023/01/20 03:39:23;;;;;;;57.65;49.83;;;13.00;59.70;;;;;;5044184;27;86336;-58
2023/01/20 03:42:10;;;;;;;56.05;49.83;;;13.00;59.80;;;;;;5043021;27;85315;-57
2023/01/20 03:44:59;;;;;;;55.45;48.88;;;13.00;59.90;;;;;;5034609;27;89038;-57
2023/01/20 03:47:27;;;;;;;55.70;49.60;;;13.00;59.80;;;;;;5040951;27;85438;-51
2023/01/20 03:50:29;;;;;;;54.58;48.60;;;13.00;59.80;;;;;;5052557;27;84923;-58
2023/01/20 03:53:05;;;;;;;55.97;49.33;;;12.90;59.80;;;;;;5045516;27;90405;-54
2023/01/20 03:55:40;;;;;;;55.58;49.45;;;12.90;60.00;;;;;;5033718;27;85816;-54
2023/01/20 03:58:12;;;;;;;56.40;49.35;;;12.90;60.00;;;;;;5029999;27;86138;-58
2023/01/20 04:00:47;;;;;;;55.65;49.38;;;12.90;59.80;;;;;;5030873;27;84827;-54
2023/01/20 04:03:18;;;;;;;56.22;49.58;;;12.90;59.80;;;;;;5030504;27;85122;-56
2023/01/20 04:05:45;;;;;;;55.47;49.43;;;12.90;59.70;;;;;;5045621;27;87662;-58
2023/01/20 04:08:14;;;;;;;55.33;49.28;;;12.80;59.70;;;;;;5036802;27;85818;-57
2023/01/20 04:10:42;;;;;;;55.78;49.38;;;12.90;59.80;;;;;;5051735;27;85422;-57
2023/01/20 04:13:08;;;;;;;55.05;49.05;;;12.90;60.00;;;;;;5027875;27;86003;-58
2023/01/20 04:15:38;;;;;;;55.92;49.72;;;12.90;59.90;;;;;;5045087;27;85125;-57
2023/01/20 04:18:12;;;;;;;54.97;48.97;;;12.90;60.00;;;;;;5042482;27;85350;-57
2023/01/20 04:20:38;;;;;;;55.53;49.35;;;12.80;60.00;;;;;;5031408;27;86672;-57
2023/01/20 04:23:05;;;;;;;55.97;49.45;;;12.80;60.00;;;;;;5031082;27;87494;-57
2023/01/20 04:25:31;;;;;;;54.78;48.70;;;12.90;60.00;;;;;;5048494;27;85700;-54
2023/01/20 04:27:57;;;;;;;55.15;49.17;;;12.80;60.00;;;;;;5051714;27;86542;-57
2023/01/20 04:30:23;;;;;;;57.63;49.03;;;12.90;60.00;;;;;;5039180;27;90452;-56
2023/01/20 04:32:49;;;;;;;55.20;49.20;;;12.80;60.00;;;;;;5036000;27;85116;-58
2023/01/20 04:35:18;;;;;;;56.67;49.53;;;12.80;60.00;;;;;;5046984;27;84905;-58
2023/01/20 04:37:44;;;;;;;56.90;49.55;;;12.90;60.10;;;;;;5027596;27;85747;-57
2023/01/20 04:40:11;;;;;;;55.50;49.40;;;12.90;60.00;;;;;;5029777;27;85336;-58
2023/01/20 04:42:37;;;;;;;54.78;48.83;;;12.80;60.00;;;;;;5034524;27;91250;-53
2023/01/20 04:45:03;;;;;;;56.55;49.25;;;12.90;59.90;;;;;;5038141;27;86976;-58
2023/01/20 04:47:32;;;;;;;55.22;49.13;;;12.80;59.80;;;;;;5017373;27;85375;-55
2023/01/20 04:49:58;;;;;;;57.53;49.05;;;12.80;59.80;;;;;;5033183;27;85293;-56
2023/01/20 04:52:24;;;;;;;55.08;49.00;;;12.80;59.80;;;;;;5038493;27;86146;-57
2023/01/20 04:54:50;;;;;;;55.58;49.33;;;12.90;59.90;;;;;;5031908;27;87678;-58
2023/01/20 04:57:15;;;;;;;57.28;49.05;;;12.80;59.90;;;;;;5046081;27;85574;-58
2023/01/20 04:59:41;;;;;;;56.55;49.10;;;12.80;59.90;;;;;;5044931;27;87554;-55
2023/01/20 05:02:07;;;;;;;54.97;48.90;;;12.80;60.00;;;;;;5047939;27;84923;-57
2023/01/20 05:04:33;;;;;;;55.58;48.85;;;12.80;60.20;;;;;;5034894;27;86279;-58
2023/01/20 05:06:58;;;;;;;61.95;49.00;;;12.90;60.10;;;;;;5033976;27;85550;-57
2023/01/20 05:09:24;;;;;;;58.92;49.22;;;12.90;59.90;;;;;;5039172;27;85161;-58
2023/01/20 05:11:50;;;;;;;56.70;48.88;;;12.90;59.70;;;;;;5026161;27;89931;-57
2023/01/20 05:14:15;;;;;;;55.78;49.28;;;12.90;59.60;;;;;;5043752;27;85724;-57
2023/01/20 05:16:41;;;;;;;54.22;48.25;;;12.90;59.60;;;;;;5031998;27;85390;-55
2023/01/20 05:19:09;;;;;;;55.55;48.75;;;12.90;59.70;;;;;;5033372;27;85246;-56
2023/01/20 05:21:34;;;;;;;54.08;48.17;;;12.80;59.80;;;;;;5050239;27;84935;-52
2023/01/20 05:24:00;;;;;;;56.13;48.63;;;12.90;59.70;;;;;;5048381;27;85900;-57
2023/01/20 05:26:35;;;;;;;54.97;48.65;;;12.80;59.70;;;;;;5039558;27;87429;-57
2023/01/20 05:29:01;;;;;;;55.35;48.55;;;12.80;59.70;;;;;;5038811;27;86062;-57
2023/01/20 05:31:27;;;;;;;54.80;48.35;;;12.90;59.80;;;;;;5030909;27;86895;-56
2023/01/20 05:33:53;;;;;;;55.03;49.08;;;12.80;59.80;;;;;;5040063;27;90567;-55
2023/01/20 05:36:19;;;;;;;56.35;49.05;;;12.80;59.70;;;;;;5033225;27;84896;-55
2023/01/20 05:38:44;;;;;;;54.17;48.22;;;12.80;59.80;;;;;;5036427;27;85629;-57
2023/01/20 05:41:10;;;;;;;55.28;48.50;;;12.80;59.80;;;;;;5034150;27;85846;-57
2023/01/20 05:43:36;;;;;;;55.13;48.60;;;12.80;59.80;;;;;;5048830;27;85065;-57
2023/01/20 05:46:02;;;;;;;54.53;48.63;;;12.80;59.70;;;;;;5038369;27;87936;-51
2023/01/20 05:48:28;;;;;;;53.78;47.92;;;12.80;59.70;;;;;;5036687;27;85082;-58
2023/01/20 05:50:54;;;;;;;54.25;48.30;;;12.80;59.60;;;;;;5030547;27;85336;-55
2023/01/20 05:53:20;;;;;;;55.22;49.10;;;12.80;59.80;;;;;;5046833;27;84918;-58
2023/01/20 05:55:46;;;;;;;54.58;48.67;;;12.80;60.00;;;;;;5032648;27;85262;-57
2023/01/20 05:58:11;;;;;;;54.53;48.53;;;12.80;59.90;;;;;;5046303;27;85038;-58
2023/01/20 06:00:38;;;;;;;54.85;48.50;;;12.80;59.80;;;;;;5032794;27;86021;-56
2023/01/20 06:03:04;;;;;;;54.70;48.72;;;12.80;59.80;;;;;;5055671;27;86475;-58
2023/01/20 06:05:29;;;;;;;54.25;48.35;;;12.70;59.90;;;;;;5033975;27;86541;-54
2023/01/20 06:07:55;;;;;;;56.17;47.75;;;12.70;59.90;;;;;;5051530;27;86872;-58
2023/01/20 06:10:24;;;;;;;53.67;47.90;;;12.70;59.80;;;;;;5042977;27;85362;-58
2023/01/20 06:12:53;;;;;;;55.03;48.22;;;12.70;59.80;;;;;;5043283;27;87131;-59
2023/01/20 06:15:19;;;;;;;54.47;48.00;;;12.80;60.00;;;;;;5030184;27;85941;-56
2023/01/20 06:17:45;;;;;;;54.20;48.22;;;12.80;60.00;;;;;;5052762;27;89903;-52
2023/01/20 06:20:11;;;;;;;54.90;48.58;;;12.70;59.90;;;;;;5041231;27;85800;-56
2023/01/20 06:22:37;;;;;;;53.97;48.05;;;12.70;59.90;;;;;;5029973;27;85578;-58
2023/01/20 06:25:03;;;;;;;54.75;48.13;;;12.80;60.00;;;;;;5041842;27;85010;-57
2023/01/20 06:27:29;;;;;;;53.72;47.83;;;12.80;60.10;;;;;;5041261;27;85404;-56
2023/01/20 06:29:55;;;;;;;56.28;48.72;;;12.80;60.90;;;;;;5032737;27;85579;-56
2023/01/20 06:32:20;;;;;;;55.72;48.85;;;12.80;60.00;;;;;;5052574;27;88458;-58
2023/01/20 06:34:46;;;;;;;55.90;48.47;;;12.80;60.30;;;;;;5031927;27;85495;-57
2023/01/20 06:37:12;;;;;;;54.75;48.20;;;12.80;60.30;;;;;;5037048;27;87721;-48
2023/01/20 06:39:39;;;;;;;55.75;48.33;;;12.70;60.20;;;;;;5045203;27;85827;-51
2023/01/20 06:42:05;;;;;;;54.28;47.75;;;12.80;60.70;;;;;;5034900;27;87193;-57
2023/01/20 06:44:32;;;;;;;57.70;48.13;;;12.80;60.30;;;;;;5045401;27;85378;-57
2023/01/20 06:46:58;;;;;;;56.00;48.35;;;12.80;60.30;;;;;;5036497;27;86499;-50
2023/01/20 06:49:24;;;;;;;55.30;48.00;;;12.70;60.00;;;;;;5038017;27;86342;-57
2023/01/20 06:51:51;;;;;;;54.30;47.85;;;12.70;60.20;;;;;;5043018;27;87524;-58
2023/01/20 06:54:16;;;;;;;54.65;48.40;;;12.60;60.30;;;;;;5042837;27;85658;-57
2023/01/20 06:56:42;;;;;;;54.70;48.03;;;12.60;60.70;;;;;;5044327;27;86553;-53
2023/01/20 06:59:09;;;;;;;57.17;48.17;;;12.60;60.90;;;;;;5043121;27;84883;-58
2023/01/20 07:01:35;;;;;;;55.58;49.20;;;12.60;60.50;;;;;;5038183;27;85864;-57
2023/01/20 07:04:02;;;;;;;55.05;48.67;;;12.70;60.80;;;;;;5036601;27;85509;-52
2023/01/20 07:06:32;;;;;;;55.75;48.85;;;12.70;60.50;;;;;;5046278;27;86935;-57
2023/01/20 07:08:59;;;;;;;55.63;49.20;;;12.90;60.60;;;;;;5047156;27;84988;-57
2023/01/20 07:11:25;;;;;;;55.72;48.45;;;13.10;60.00;;;;;;5050899;27;87258;-55
2023/01/20 07:13:50;;;;;;;57.75;48.60;;;13.20;59.50;;;;;;5040443;27;86242;-53
2023/01/20 07:16:16;;;;;;;60.53;49.97;;;13.30;59.30;;;;;;5034868;27;92344;-53
2023/01/20 07:18:46;;;;;;;56.85;49.00;;;13.40;58.90;;;;;;5036740;27;86451;-56
2023/01/20 07:21:11;;;;;;;62.28;49.42;;;13.50;58.90;;;;;;5003964;27;86470;-56
2023/01/20 07:23:37;;;;;;;58.75;49.13;;;13.60;58.60;;;;;;5047482;27;85078;-58
2023/01/20 07:26:06;;;;;;;55.40;48.50;;;13.60;58.50;;;;;;5033930;27;88198;-57
2023/01/20 07:28:32;;;;;;;56.22;48.65;;;13.70;58.20;;;;;;5037724;27;86028;-56
2023/01/20 07:31:18;;;;;;;57.38;48.72;;;13.80;58.30;;;;;;5044828;27;88196;-57
2023/01/20 07:33:45;;;;;;;54.40;48.40;;;13.80;57.90;;;;;;5047985;27;85606;-49
2023/01/20 07:36:12;;;;;;;56.67;48.20;;;13.90;57.90;;;;;;5050141;27;85532;-54
2023/01/20 07:38:38;;;;;;;56.80;48.40;;;13.90;57.70;;;;;;5043060;27;88633;-58
2023/01/20 07:41:09;;;;;;;55.00;48.25;;;13.80;57.60;;;;;;5026975;27;85443;-55
2023/01/20 07:43:34;;;;;;;56.30;48.07;;;13.80;57.60;;;;;;5032132;27;85256;-58
2023/01/20 07:46:02;;;;;;;55.53;48.17;;;13.80;57.80;;;;;;5045411;27;84788;-56
2023/01/20 07:48:32;;;;;;;54.45;48.25;;;13.90;57.60;;;;;;5046487;27;86185;-57
2023/01/20 07:51:04;;;;;;;54.08;47.78;;;13.90;57.60;;;;;;5046364;27;85549;-58
2023/01/20 07:53:45;;;;;;;55.13;47.95;;;14.00;57.30;;;;;;5051260;27;85971;-57
2023/01/20 07:56:12;;;;;;;54.38;48.13;;;14.00;57.20;;;;;;5043292;27;86077;-58
2023/01/20 07:58:38;;;;;;;62.13;52.25;;;14.00;57.00;;;;;;5030177;27;87104;-58
2023/01/20 08:01:08;;;;;;;74.53;61.00;;;14.00;56.90;;;;;;5040018;27;87303;-57
2023/01/20 08:03:34;;;;;;;77.90;64.18;;;13.90;57.20;;;;;;5041573;27;91536;-52
2023/01/20 08:06:04;;;;;;;68.82;58.40;;;13.90;57.30;;;;;;5039867;27;85524;-57
2023/01/20 08:08:32;;;;;;;68.07;57.78;;;13.90;57.50;;;;;;5044682;27;89276;-58
2023/01/20 08:13:37;;;;;;;67.05;56.67;;;14.00;57.30;;;;;;4997894;27;83839;-56
2023/01/20 08:16:04;;;;;;;70.13;58.35;;;14.20;57.50;;;;;;4982135;27;86241;-53
2023/01/20 08:18:31;;;;;;;68.38;55.83;;;14.20;57.90;;;;;;4973223;28;86394;-56
2023/01/20 08:20:57;;;;;;;67.18;55.83;;;14.30;58.00;;;;;;4972590;28;86934;-54
2023/01/20 08:23:23;;;;;;;65.05;55.33;;;14.40;57.60;;;;;;4981614;28;85215;-57
2023/01/20 08:25:50;;;;;;;69.85;55.33;;;14.50;57.40;;;;;;4974710;28;86308;-56
2023/01/20 08:28:16;;;;;;;68.20;55.70;;;14.60;57.40;;;;;;4976519;28;88269;-56
2023/01/20 08:30:41;;;;;;;65.07;55.08;;;14.60;57.10;;;;;;4970898;28;87039;-57
2023/01/20 08:33:07;;;;;;;65.68;53.97;;;14.60;57.00;;;;;;4975934;27;85988;-51
2023/01/20 08:35:34;;;;;;;67.40;54.58;;;14.70;57.20;;;;;;4973031;28;86660;-58
2023/01/20 08:38:02;;;;;;;62.08;53.40;;;14.70;57.10;;;;;;4968881;28;87138;-55
2023/01/20 08:40:27;;;;;;;60.97;52.67;;;14.70;57.00;;;;;;4964236;28;85060;-56
2023/01/20 08:42:53;;;;;;;65.00;52.40;;;14.60;57.10;;;;;;4989122;27;85352;-57
2023/01/20 08:45:19;;;;;;;65.05;53.65;;;14.60;57.20;;;;;;4958998;28;89181;-56
2023/01/20 08:47:44;;;;;;;65.85;52.70;;;14.70;57.20;;;;;;4971006;28;85840;-57
2023/01/20 08:50:13;;;;;;;62.67;52.47;;;14.70;56.80;;;;;;4972604;28;85856;-57
2023/01/20 08:52:39;;;;;;;61.53;51.90;;;14.80;57.00;;;;;;4975328;28;87708;-57
2023/01/20 08:55:05;;;;;;;60.50;51.40;;;14.70;56.70;;;;;;4970000;28;86132;-56
2023/01/20 08:57:31;;;;;;;60.75;51.35;;;14.70;57.00;;;;;;4965508;28;86089;-56
2023/01/20 08:59:56;;;;;;;64.40;51.70;;;14.60;56.70;;;;;;4973039;28;85911;-58
2023/01/20 09:02:23;;;;;;;66.53;52.00;;;14.60;57.00;;;;;;4969472;28;85152;-54
2023/01/20 09:04:49;;;;;;;63.42;52.05;;;14.50;57.70;;;;;;4973386;27;85710;-55
2023/01/20 09:07:17;;;;;;;63.03;52.60;;;14.70;57.90;;;;;;4965347;28;85029;-53
2023/01/20 09:09:42;;;;;;;67.22;52.15;;;15.00;57.60;;;;;;4973158;28;85046;-58
2023/01/20 09:12:08;;;;;;;72.60;51.90;;;15.20;57.10;;;;;;4965926;28;86460;-57
2023/01/20 09:14:33;;;;;;;67.22;52.40;;;15.30;56.80;;;;;;4972032;28;85469;-57
2023/01/20 09:17:01;;;;;;;68.72;51.78;;;15.40;57.00;;;;;;4975660;28;85528;-58
2023/01/20 09:19:27;;;;;;;66.93;51.80;;;15.50;56.90;;;;;;4966984;27;85966;-58
2023/01/20 09:21:53;;;;;;;64.15;51.58;;;15.60;56.90;;;;;;4964852;28;86780;-55
2023/01/20 09:24:19;;;;;;;76.70;58.10;;;15.70;56.50;;;;;;4951062;28;86176;-48
2023/01/20 09:26:49;;;;;;;74.70;57.28;;;15.80;57.00;;;;;;4952253;27;86996;-58
2023/01/20 09:29:18;;;;;;;74.65;56.03;;;15.80;56.70;;;;;;4953695;28;85024;-58
2023/01/20 09:31:48;;;;;;;72.13;54.70;;;15.90;56.70;;;;;;4956270;27;85506;-57
2023/01/20 09:34:18;;;;;;;72.50;54.35;;;15.90;56.80;;;;;;4963269;28;87619;-49
2023/01/20 09:36:44;;;;;;;74.45;54.47;;;16.00;56.90;;;;;;4962162;28;85566;-58
2023/01/20 09:45:08;;;;;;;66.22;52.45;;;16.10;56.00;;;;;;4954532;28;86274;-52
2023/01/20 09:47:46;;;;;;;67.80;52.08;;;16.10;55.70;;;;;;4955680;28;85338;-50
2023/01/20 09:53:51;;;;;;;67.80;51.38;;;16.00;55.80;;;;;;4957329;28;85835;-50
2023/01/20 09:56:20;;;;;;;64.18;50.70;;;16.20;55.60;;;;;;4962946;28;86500;-49
2023/01/20 09:59:05;;;;;;;66.32;51.05;;;16.20;55.50;;;;;;4948588;28;84875;-48
2023/01/20 10:01:43;;;;;;;62.70;49.90;;;16.20;55.10;;;;;;4962746;28;85042;-49
2023/01/20 10:04:22;;;;;;;63.53;49.95;;;16.20;55.00;;;;;;4962814;28;85347;-50
2023/01/20 10:07:01;;;;;;;65.07;49.95;;;16.20;54.90;;;;;;4955561;28;88124;-52
2023/01/20 10:09:43;;;;;;;64.15;49.95;;;16.30;54.60;;;;;;4963942;28;85044;-50
2023/01/20 10:12:20;;;;;;;58.95;49.33;;;16.30;54.30;;;;;;4970102;28;85185;-52
2023/01/20 10:14:57;;;;;;;63.28;49.08;;;16.20;54.30;;;;;;4968119;27;89463;-52
2023/01/20 10:17:32;;;;;;;61.28;49.00;;;16.20;54.20;;;;;;4958944;28;85537;-51
2023/01/20 10:20:15;;;;;;;63.83;49.38;;;16.10;54.50;;;;;;4954981;28;85640;-49
2023/01/20 10:23:00;;;;;;;61.78;49.00;;;15.90;54.70;;;;;;4953950;28;86724;-46
2023/01/20 10:26:04;;;;;;;61.20;49.20;;;15.90;54.60;;;;;;4953690;28;87151;-47
2023/01/20 10:28:35;;;;;;;63.03;48.88;;;16.10;54.70;;;;;;4951928;28;86860;-47
2023/01/20 10:31:03;;;;;;;57.55;48.92;;;16.10;54.60;;;;;;4956260;28;87754;-50
2023/01/20 10:33:35;;;;;;;58.55;48.83;;;16.10;54.50;;;;;;4965875;28;86959;-46
2023/01/20 10:36:01;;;;;;;;;;;16.20;54.40;;;;;;4953033;28;90701;-47
2023/01/20 10:38:32;;;;;;;67.57;50.05;;;16.10;54.30;;;;;;4959333;28;83415;-48
2023/01/20 10:41:21;;;;;;;65.28;51.53;;;16.20;53.80;;;;;;4956037;28;94635;-49
2023/01/20 10:43:47;;;;;;;65.45;50.63;;;15.80;54.00;;;;;;4951776;28;87519;-51
2023/01/20 10:46:42;;;;;;;62.20;50.10;;;15.70;54.50;;;;;;4963413;28;85632;-49
2023/01/20 10:49:26;;;;;;;62.03;50.17;;;15.70;55.30;;;;;;4957123;28;86910;-55
2023/01/20 10:52:10;;;;;;;59.85;49.42;;;15.70;55.00;;;;;;4947411;28;86346;-56
2023/01/20 10:55:04;;;;;;;61.88;50.20;;;15.70;55.40;;;;;;4962199;28;87515;-56
2023/01/20 10:57:30;;;;;;;63.58;48.88;;;15.80;55.60;;;;;;4949348;28;85506;-53
2023/01/20 11:00:00;;;;;;;62.13;49.45;;;15.90;54.90;;;;;;4952769;28;89014;-48
2023/01/20 11:02:30;;;;;;;61.20;49.22;;;15.90;54.90;;;;;;4951705;28;89405;-51
2023/01/20 11:05:01;;;;;;;59.90;49.13;;;16.10;55.00;;;;;;4955139;28;85532;-56
2023/01/20 11:07:28;;;;;;;60.33;49.25;;;16.20;54.70;;;;;;4959792;28;85824;-48
2023/01/20 11:09:54;;;;;;;63.60;49.35;;;16.30;55.10;;;;;;4959623;28;86667;-54
2023/01/20 11:12:27;;;;;;;65.22;48.92;;;16.40;54.90;;;;;;4950630;28;86301;-52
2023/01/20 11:14:54;;;;;;;62.03;48.70;;;16.40;55.00;;;;;;4955419;28;85538;-46
2023/01/20 11:17:20;;;;;;;61.70;49.28;;;16.40;54.70;;;;;;4953369;28;86363;-55
2023/01/20 11:19:53;;;;;;;63.03;50.42;;;16.40;54.70;;;;;;4946691;28;87248;-53
2023/01/20 11:22:30;;;;;;;62.47;50.25;;;16.50;55.00;;;;;;4955885;28;86080;-55
2023/01/20 11:24:58;;;;;;;60.85;49.97;;;16.50;54.10;;;;;;4962209;28;87194;-57
2023/01/20 11:27:28;;;;;;;62.80;49.70;;;16.30;54.70;;;;;;4970044;28;85829;-53
2023/01/20 11:30:06;;;;;;;62.58;49.55;;;16.10;55.50;;;;;;4962806;28;86695;-56
2023/01/20 11:32:35;;;;;;;63.55;49.65;;;16.10;55.90;;;;;;4963476;28;86860;-55
2023/01/20 11:35:23;;;;;;;62.72;49.25;;;16.10;56.00;;;;;;4956722;28;86796;-55
2023/01/20 11:37:49;;;;;;;57.63;49.15;;;16.10;56.10;;;;;;4958822;28;89919;-50
2023/01/20 11:40:24;;;;;;;59.92;48.88;;;16.00;56.00;;;;;;4969233;28;85719;-57
2023/01/20 11:42:51;;;;;;;61.70;49.03;;;16.00;56.40;;;;;;4966141;28;89526;-54
2023/01/20 11:45:33;;;;;;;60.35;49.25;;;16.00;56.30;;;;;;4961321;28;85204;-58
2023/01/20 11:47:59;;;;;;;60.05;48.88;;;15.90;56.70;;;;;;4954700;28;85568;-57
2023/01/20 11:50:53;;;;;;;62.28;48.58;;;15.90;56.90;;;;;;4957425;28;86897;-47
2023/01/20 11:53:24;;;;;;;60.10;48.50;;;15.90;57.00;;;;;;4965956;28;86507;-57
2023/01/20 11:55:52;;;;;;;;;;;15.80;56.70;;;;;;4963621;28;87520;-57
2023/01/20 11:58:21;;;;;;;58.13;48.15;;;15.90;56.90;;;;;;4970142;28;83438;-57
2023/01/20 12:00:50;;;;;;;60.80;49.10;;;16.00;57.20;;;;;;4947818;28;85606;-57
2023/01/20 12:04:12;;;;;;;58.58;48.35;;;16.10;57.60;;;;;;4970207;28;86402;-58
2023/01/20 12:06:50;;;;;;;57.95;48.58;;;16.10;56.90;;;;;;4946274;28;87454;-54
2023/01/20 12:09:21;;;;;;;60.33;48.30;;;16.20;56.60;;;;;;4937044;28;90155;-58
2023/01/20 12:11:50;;;;;;;60.78;48.55;;;16.20;56.70;;;;;;4953981;28;86682;-56
2023/01/20 12:14:24;;;;;;;60.17;48.15;;;16.20;56.00;;;;;;4967419;28;86643;-49
2023/01/20 12:17:01;;;;;;;60.28;48.35;;;16.10;56.90;;;;;;4962014;28;86025;-57
2023/01/20 12:19:51;;;;;;;59.20;48.25;;;16.10;56.50;;;;;;4960596;28;90460;-58
2023/01/20 12:22:23;;;;;;;65.05;48.38;;;16.10;56.30;;;;;;4962698;28;85866;-57
2023/01/20 12:25:08;;;;;;;58.13;48.08;;;16.20;56.10;;;;;;4955652;28;85871;-54
2023/01/20 12:27:40;;;;;;;60.38;48.28;;;16.20;56.00;;;;;;4971062;28;85684;-57
2023/01/20 12:30:26;;;;;;;57.92;47.78;;;16.20;55.90;;;;;;4957225;28;87791;-58
2023/01/20 12:32:51;;;;;;;58.83;47.72;;;16.10;56.00;;;;;;4956668;28;87052;-58
2023/01/20 12:35:21;;;;;;;60.40;48.03;;;16.20;56.10;;;;;;4958205;28;86602;-59
2023/01/20 12:37:55;;;;;;;59.20;47.80;;;16.10;56.20;;;;;;4966692;28;85703;-58
2023/01/20 12:40:21;;;;;;;57.22;47.50;;;16.10;56.00;;;;;;4961739;28;88583;-58
2023/01/20 12:43:02;;;;;;;61.92;47.63;;;16.10;55.70;;;;;;4960496;28;89754;-58
2023/01/20 12:45:54;;;;;;;58.15;47.83;;;16.00;55.30;;;;;;4955247;28;87855;-57
2023/01/20 12:48:24;;;;;;;;;;;16.00;55.70;;;;;;4966071;28;86516;-58
2023/01/20 12:51:24;;;;;;;56.03;47.70;;;16.00;56.00;;;;;;4965404;28;87497;-55
2023/01/20 12:53:58;;;;;;;56.15;47.45;;;16.00;56.00;;;;;;4965504;28;88242;-58
2023/01/20 12:56:52;;;;;;;60.80;48.00;;;16.00;56.50;;;;;;4961764;28;89440;-51